sensor_id;sensor_type;location;lat;lon;timestamp;P1;durP1;ratioP1;P2;durP2;ratioP2
63046;SDS011;62025;39.238;9.126;2023-09-30T00:01:26;4.32;;;2.63;;
63046;SDS011;62025;39.238;9.126;2023-09-30T00:03:52;3.67;;;2.63;;
63046;SDS011;62025;39.238;9.126;2023-09-30T00:06:18;4.20;;;2.90;;
63046;SDS011;62025;39.238;9.126;2023-09-30T00:08:44;5.57;;;2.67;;
63046;SDS011;62025;39.238;9.126;2023-09-30T00:11:11;4.63;;;2.60;;
63046;SDS011;62025;39.238;9.126;2023-09-30T00:13:37;3.75;;;2.40;;
63046;SDS011;62025;39.238;9.126;2023-09-30T00:16:03;4.60;;;2.75;;
63046;SDS011;62025;39.238;9.126;2023-09-30T00:18:29;4.38;;;2.67;;
63046;SDS011;62025;39.238;9.126;2023-09-30T00:20:55;4.45;;;2.60;;
63046;SDS011;62025;39.238;9.126;2023-09-30T00:23:22;4.35;;;2.55;;
63046;SDS011;62025;39.238;9.126;2023-09-30T00:25:48;5.25;;;2.80;;
63046;SDS011;62025;39.238;9.126;2023-09-30T00:28:15;5.20;;;2.85;;
63046;SDS011;62025;39.238;9.126;2023-09-30T00:30:41;4.43;;;2.67;;
63046;SDS011;62025;39.238;9.126;2023-09-30T00:33:08;4.60;;;2.78;;
63046;SDS011;62025;39.238;9.126;2023-09-30T00:35:34;5.72;;;3.13;;
63046;SDS011;62025;39.238;9.126;2023-09-30T00:38:01;4.53;;;2.80;;
63046;SDS011;62025;39.238;9.126;2023-09-30T00:40:27;4.38;;;2.92;;
63046;SDS011;62025;39.238;9.126;2023-09-30T00:42:53;7.55;;;2.80;;
63046;SDS011;62025;39.238;9.126;2023-09-30T00:45:19;4.25;;;2.70;;
63046;SDS011;62025;39.238;9.126;2023-09-30T00:47:46;5.20;;;3.33;;
63046;SDS011;62025;39.238;9.126;2023-09-30T00:50:12;8.32;;;3.10;;
63046;SDS011;62025;39.238;9.126;2023-09-30T00:52:39;6.20;;;3.13;;
63046;SDS011;62025;39.238;9.126;2023-09-30T00:55:06;6.57;;;2.78;;
63046;SDS011;62025;39.238;9.126;2023-09-30T00:57:34;6.20;;;3.00;;
63046;SDS011;62025;39.238;9.126;2023-09-30T01:00:01;4.05;;;3.10;;
63046;SDS011;62025;39.238;9.126;2023-09-30T01:02:28;5.38;;;3.05;;
63046;SDS011;62025;39.238;9.126;2023-09-30T01:04:54;5.50;;;2.97;;
63046;SDS011;62025;39.238;9.126;2023-09-30T01:07:21;5.30;;;2.83;;
63046;SDS011;62025;39.238;9.126;2023-09-30T01:09:47;6.07;;;3.10;;
63046;SDS011;62025;39.238;9.126;2023-09-30T01:12:14;5.88;;;3.20;;
63046;SDS011;62025;39.238;9.126;2023-09-30T01:14:40;4.63;;;3.17;;
63046;SDS011;62025;39.238;9.126;2023-09-30T01:17:07;4.53;;;3.37;;
63046;SDS011;62025;39.238;9.126;2023-09-30T01:19:34;5.57;;;3.30;;
63046;SDS011;62025;39.238;9.126;2023-09-30T01:22:00;4.30;;;3.17;;
63046;SDS011;62025;39.238;9.126;2023-09-30T01:24:31;5.45;;;3.30;;
63046;SDS011;62025;39.238;9.126;2023-09-30T01:27:06;4.45;;;3.22;;
63046;SDS011;62025;39.238;9.126;2023-09-30T01:29:33;6.68;;;3.33;;
63046;SDS011;62025;39.238;9.126;2023-09-30T01:32:00;9.45;;;3.28;;
63046;SDS011;62025;39.238;9.126;2023-09-30T01:34:27;4.70;;;3.42;;
63046;SDS011;62025;39.238;9.126;2023-09-30T01:36:53;4.35;;;3.20;;
63046;SDS011;62025;39.238;9.126;2023-09-30T01:39:19;4.20;;;3.38;;
63046;SDS011;62025;39.238;9.126;2023-09-30T01:41:45;9.25;;;3.67;;
63046;SDS011;62025;39.238;9.126;2023-09-30T01:44:11;5.47;;;3.42;;
63046;SDS011;62025;39.238;9.126;2023-09-30T01:46:37;6.22;;;3.42;;
63046;SDS011;62025;39.238;9.126;2023-09-30T01:49:03;5.38;;;3.55;;
63046;SDS011;62025;39.238;9.126;2023-09-30T01:51:29;4.82;;;3.10;;
63046;SDS011;62025;39.238;9.126;2023-09-30T01:53:57;7.15;;;3.63;;
63046;SDS011;62025;39.238;9.126;2023-09-30T01:56:23;5.15;;;3.45;;
63046;SDS011;62025;39.238;9.126;2023-09-30T01:58:49;5.53;;;3.30;;
63046;SDS011;62025;39.238;9.126;2023-09-30T02:01:15;5.72;;;3.90;;
63046;SDS011;62025;39.238;9.126;2023-09-30T02:03:41;4.40;;;3.53;;
63046;SDS011;62025;39.238;9.126;2023-09-30T02:06:07;6.88;;;3.30;;
63046;SDS011;62025;39.238;9.126;2023-09-30T02:08:33;4.78;;;3.25;;
63046;SDS011;62025;39.238;9.126;2023-09-30T02:11:03;5.13;;;3.22;;
63046;SDS011;62025;39.238;9.126;2023-09-30T02:13:34;6.55;;;3.25;;
63046;SDS011;62025;39.238;9.126;2023-09-30T02:16:00;4.57;;;3.60;;
63046;SDS011;62025;39.238;9.126;2023-09-30T02:18:27;6.63;;;3.45;;
63046;SDS011;62025;39.238;9.126;2023-09-30T02:20:53;3.83;;;3.10;;
63046;SDS011;62025;39.238;9.126;2023-09-30T02:23:18;6.00;;;3.47;;
63046;SDS011;62025;39.238;9.126;2023-09-30T02:25:46;10.00;;;3.57;;
63046;SDS011;62025;39.238;9.126;2023-09-30T02:28:12;6.47;;;3.65;;
63046;SDS011;62025;39.238;9.126;2023-09-30T02:30:38;8.57;;;3.63;;
63046;SDS011;62025;39.238;9.126;2023-09-30T02:33:04;6.47;;;3.45;;
63046;SDS011;62025;39.238;9.126;2023-09-30T02:35:32;6.40;;;4.05;;
63046;SDS011;62025;39.238;9.126;2023-09-30T02:37:58;4.80;;;3.63;;
63046;SDS011;62025;39.238;9.126;2023-09-30T02:40:24;7.68;;;3.53;;
63046;SDS011;62025;39.238;9.126;2023-09-30T02:42:50;5.18;;;3.30;;
63046;SDS011;62025;39.238;9.126;2023-09-30T02:45:17;4.78;;;3.88;;
63046;SDS011;62025;39.238;9.126;2023-09-30T02:47:44;5.20;;;3.42;;
63046;SDS011;62025;39.238;9.126;2023-09-30T02:50:10;5.85;;;3.60;;
63046;SDS011;62025;39.238;9.126;2023-09-30T02:52:44;5.60;;;3.63;;
63046;SDS011;62025;39.238;9.126;2023-09-30T02:55:11;4.60;;;3.50;;
63046;SDS011;62025;39.238;9.126;2023-09-30T02:57:37;5.97;;;3.40;;
63046;SDS011;62025;39.238;9.126;2023-09-30T03:00:04;6.20;;;3.42;;
63046;SDS011;62025;39.238;9.126;2023-09-30T03:02:51;4.40;;;3.40;;
63046;SDS011;62025;39.238;9.126;2023-09-30T03:05:19;8.35;;;3.70;;
63046;SDS011;62025;39.238;9.126;2023-09-30T03:07:45;6.40;;;3.85;;
63046;SDS011;62025;39.238;9.126;2023-09-30T03:10:12;5.40;;;3.60;;
63046;SDS011;62025;39.238;9.126;2023-09-30T03:12:42;6.30;;;3.40;;
63046;SDS011;62025;39.238;9.126;2023-09-30T03:15:09;4.80;;;3.67;;
63046;SDS011;62025;39.238;9.126;2023-09-30T03:17:35;5.47;;;3.50;;
63046;SDS011;62025;39.238;9.126;2023-09-30T03:20:03;5.72;;;3.67;;
63046;SDS011;62025;39.238;9.126;2023-09-30T03:22:43;6.90;;;3.70;;
63046;SDS011;62025;39.238;9.126;2023-09-30T03:25:12;4.47;;;3.90;;
63046;SDS011;62025;39.238;9.126;2023-09-30T03:27:43;6.93;;;3.72;;
63046;SDS011;62025;39.238;9.126;2023-09-30T03:30:12;7.50;;;3.92;;
63046;SDS011;62025;39.238;9.126;2023-09-30T03:32:40;5.10;;;4.15;;
63046;SDS011;62025;39.238;9.126;2023-09-30T03:35:10;5.60;;;3.72;;
63046;SDS011;62025;39.238;9.126;2023-09-30T03:37:40;4.90;;;3.80;;
63046;SDS011;62025;39.238;9.126;2023-09-30T03:40:06;6.25;;;3.70;;
63046;SDS011;62025;39.238;9.126;2023-09-30T03:42:53;5.13;;;3.88;;
63046;SDS011;62025;39.238;9.126;2023-09-30T03:45:19;6.35;;;3.90;;
63046;SDS011;62025;39.238;9.126;2023-09-30T03:47:45;7.90;;;3.63;;
63046;SDS011;62025;39.238;9.126;2023-09-30T03:50:13;5.20;;;3.70;;
63046;SDS011;62025;39.238;9.126;2023-09-30T03:52:42;5.93;;;4.18;;
63046;SDS011;62025;39.238;9.126;2023-09-30T03:55:12;5.63;;;4.07;;
63046;SDS011;62025;39.238;9.126;2023-09-30T03:57:41;7.68;;;4.05;;
63046;SDS011;62025;39.238;9.126;2023-09-30T04:00:07;7.57;;;3.70;;
63046;SDS011;62025;39.238;9.126;2023-09-30T04:02:41;4.45;;;3.70;;
63046;SDS011;62025;39.238;9.126;2023-09-30T04:05:08;5.38;;;4.07;;
63046;SDS011;62025;39.238;9.126;2023-09-30T04:07:36;5.15;;;4.03;;
63046;SDS011;62025;39.238;9.126;2023-09-30T04:10:02;5.88;;;4.00;;
63046;SDS011;62025;39.238;9.126;2023-09-30T04:12:29;7.13;;;4.05;;
63046;SDS011;62025;39.238;9.126;2023-09-30T04:14:57;4.55;;;4.07;;
63046;SDS011;62025;39.238;9.126;2023-09-30T04:17:24;8.05;;;4.13;;
63046;SDS011;62025;39.238;9.126;2023-09-30T04:19:52;9.23;;;4.13;;
63046;SDS011;62025;39.238;9.126;2023-09-30T04:22:18;7.10;;;4.28;;
63046;SDS011;62025;39.238;9.126;2023-09-30T04:24:46;10.70;;;4.37;;
63046;SDS011;62025;39.238;9.126;2023-09-30T04:27:14;7.22;;;4.30;;
63046;SDS011;62025;39.238;9.126;2023-09-30T04:29:41;6.40;;;4.30;;
63046;SDS011;62025;39.238;9.126;2023-09-30T04:32:08;7.20;;;4.22;;
63046;SDS011;62025;39.238;9.126;2023-09-30T04:34:34;9.00;;;4.70;;
63046;SDS011;62025;39.238;9.126;2023-09-30T04:37:01;6.00;;;4.22;;
63046;SDS011;62025;39.238;9.126;2023-09-30T04:39:27;9.65;;;4.68;;
63046;SDS011;62025;39.238;9.126;2023-09-30T04:41:53;9.13;;;4.45;;
63046;SDS011;62025;39.238;9.126;2023-09-30T04:44:20;8.35;;;4.75;;
63046;SDS011;62025;39.238;9.126;2023-09-30T04:46:48;5.60;;;4.55;;
63046;SDS011;62025;39.238;9.126;2023-09-30T04:49:14;7.47;;;4.88;;
63046;SDS011;62025;39.238;9.126;2023-09-30T04:51:41;6.50;;;4.50;;
63046;SDS011;62025;39.238;9.126;2023-09-30T04:54:07;7.88;;;4.30;;
63046;SDS011;62025;39.238;9.126;2023-09-30T04:56:36;8.10;;;4.60;;
63046;SDS011;62025;39.238;9.126;2023-09-30T04:59:04;6.22;;;4.25;;
63046;SDS011;62025;39.238;9.126;2023-09-30T05:01:30;6.45;;;4.07;;
63046;SDS011;62025;39.238;9.126;2023-09-30T05:03:55;7.78;;;4.20;;
63046;SDS011;62025;39.238;9.126;2023-09-30T05:06:22;8.90;;;4.60;;
63046;SDS011;62025;39.238;9.126;2023-09-30T05:08:48;4.43;;;3.78;;
63046;SDS011;62025;39.238;9.126;2023-09-30T05:11:15;5.00;;;3.80;;
63046;SDS011;62025;39.238;9.126;2023-09-30T05:13:41;4.53;;;4.05;;
63046;SDS011;62025;39.238;9.126;2023-09-30T05:16:07;7.72;;;4.20;;
63046;SDS011;62025;39.238;9.126;2023-09-30T05:18:33;7.82;;;4.72;;
63046;SDS011;62025;39.238;9.126;2023-09-30T05:20:59;7.80;;;4.43;;
63046;SDS011;62025;39.238;9.126;2023-09-30T05:23:26;6.63;;;4.10;;
63046;SDS011;62025;39.238;9.126;2023-09-30T05:25:51;7.63;;;4.88;;
63046;SDS011;62025;39.238;9.126;2023-09-30T05:28:19;9.93;;;5.93;;
63046;SDS011;62025;39.238;9.126;2023-09-30T05:30:46;8.55;;;5.60;;
63046;SDS011;62025;39.238;9.126;2023-09-30T05:33:12;9.82;;;6.00;;
63046;SDS011;62025;39.238;9.126;2023-09-30T05:35:40;7.10;;;5.50;;
63046;SDS011;62025;39.238;9.126;2023-09-30T05:38:07;11.52;;;5.47;;
63046;SDS011;62025;39.238;9.126;2023-09-30T05:40:33;8.55;;;5.47;;
63046;SDS011;62025;39.238;9.126;2023-09-30T05:42:59;8.45;;;5.63;;
63046;SDS011;62025;39.238;9.126;2023-09-30T05:45:26;10.18;;;5.70;;
63046;SDS011;62025;39.238;9.126;2023-09-30T05:47:53;8.60;;;5.38;;
63046;SDS011;62025;39.238;9.126;2023-09-30T05:50:21;10.73;;;5.68;;
63046;SDS011;62025;39.238;9.126;2023-09-30T05:52:52;11.55;;;5.30;;
63046;SDS011;62025;39.238;9.126;2023-09-30T05:55:19;15.75;;;5.75;;
63046;SDS011;62025;39.238;9.126;2023-09-30T05:57:46;8.50;;;5.78;;
63046;SDS011;62025;39.238;9.126;2023-09-30T06:00:15;7.57;;;6.03;;
63046;SDS011;62025;39.238;9.126;2023-09-30T06:02:48;14.20;;;7.15;;
63046;SDS011;62025;39.238;9.126;2023-09-30T06:05:16;13.02;;;7.45;;
63046;SDS011;62025;39.238;9.126;2023-09-30T06:07:48;12.35;;;7.70;;
63046;SDS011;62025;39.238;9.126;2023-09-30T06:10:14;14.45;;;8.02;;
63046;SDS011;62025;39.238;9.126;2023-09-30T06:12:46;11.27;;;6.15;;
63046;SDS011;62025;39.238;9.126;2023-09-30T06:15:14;18.02;;;6.95;;
63046;SDS011;62025;39.238;9.126;2023-09-30T06:17:41;9.73;;;6.07;;
63046;SDS011;62025;39.238;9.126;2023-09-30T06:20:08;12.27;;;5.85;;
63046;SDS011;62025;39.238;9.126;2023-09-30T06:22:44;9.68;;;6.22;;
63046;SDS011;62025;39.238;9.126;2023-09-30T06:25:14;8.77;;;5.95;;
63046;SDS011;62025;39.238;9.126;2023-09-30T06:27:47;10.35;;;6.00;;
63046;SDS011;62025;39.238;9.126;2023-09-30T06:30:15;7.03;;;5.45;;
63046;SDS011;62025;39.238;9.126;2023-09-30T06:32:42;8.48;;;4.97;;
63046;SDS011;62025;39.238;9.126;2023-09-30T06:35:11;12.10;;;5.30;;
63046;SDS011;62025;39.238;9.126;2023-09-30T06:37:37;8.75;;;4.50;;
63046;SDS011;62025;39.238;9.126;2023-09-30T06:40:05;11.50;;;5.13;;
63046;SDS011;62025;39.238;9.126;2023-09-30T06:42:34;7.32;;;5.13;;
63046;SDS011;62025;39.238;9.126;2023-09-30T06:45:03;10.10;;;5.10;;
63046;SDS011;62025;39.238;9.126;2023-09-30T06:47:34;8.13;;;5.07;;
63046;SDS011;62025;39.238;9.126;2023-09-30T06:50:07;10.57;;;4.72;;
63046;SDS011;62025;39.238;9.126;2023-09-30T06:52:39;7.70;;;5.00;;
63046;SDS011;62025;39.238;9.126;2023-09-30T06:55:07;7.07;;;5.30;;
63046;SDS011;62025;39.238;9.126;2023-09-30T06:57:33;8.05;;;5.30;;
63046;SDS011;62025;39.238;9.126;2023-09-30T07:00:11;11.45;;;5.78;;
63046;SDS011;62025;39.238;9.126;2023-09-30T07:02:39;10.15;;;5.10;;
63046;SDS011;62025;39.238;9.126;2023-09-30T07:05:09;7.93;;;4.88;;
63046;SDS011;62025;39.238;9.126;2023-09-30T07:07:37;6.35;;;4.95;;
63046;SDS011;62025;39.238;9.126;2023-09-30T07:10:13;7.55;;;4.47;;
63046;SDS011;62025;39.238;9.126;2023-09-30T07:12:39;16.83;;;5.05;;
63046;SDS011;62025;39.238;9.126;2023-09-30T07:15:05;9.10;;;4.93;;
63046;SDS011;62025;39.238;9.126;2023-09-30T07:17:33;8.98;;;4.95;;
63046;SDS011;62025;39.238;9.126;2023-09-30T07:19:59;7.47;;;4.65;;
63046;SDS011;62025;39.238;9.126;2023-09-30T07:22:30;6.30;;;4.60;;
63046;SDS011;62025;39.238;9.126;2023-09-30T07:24:56;6.50;;;4.15;;
63046;SDS011;62025;39.238;9.126;2023-09-30T07:27:23;8.52;;;4.50;;
63046;SDS011;62025;39.238;9.126;2023-09-30T07:29:50;7.05;;;5.07;;
63046;SDS011;62025;39.238;9.126;2023-09-30T07:32:16;10.05;;;4.80;;
63046;SDS011;62025;39.238;9.126;2023-09-30T07:34:42;10.70;;;4.95;;
63046;SDS011;62025;39.238;9.126;2023-09-30T07:37:09;10.30;;;4.68;;
63046;SDS011;62025;39.238;9.126;2023-09-30T07:39:35;8.48;;;4.70;;
63046;SDS011;62025;39.238;9.126;2023-09-30T07:42:01;6.30;;;4.55;;
63046;SDS011;62025;39.238;9.126;2023-09-30T07:44:27;6.93;;;4.57;;
63046;SDS011;62025;39.238;9.126;2023-09-30T07:46:53;9.10;;;4.90;;
63046;SDS011;62025;39.238;9.126;2023-09-30T07:49:19;8.30;;;4.80;;
63046;SDS011;62025;39.238;9.126;2023-09-30T07:51:45;8.52;;;5.10;;
63046;SDS011;62025;39.238;9.126;2023-09-30T07:54:13;8.57;;;5.30;;
63046;SDS011;62025;39.238;9.126;2023-09-30T07:56:39;13.32;;;5.18;;
63046;SDS011;62025;39.238;9.126;2023-09-30T07:59:05;9.70;;;4.57;;
63046;SDS011;62025;39.238;9.126;2023-09-30T08:01:31;6.60;;;4.68;;
63046;SDS011;62025;39.238;9.126;2023-09-30T08:03:57;13.32;;;5.18;;
63046;SDS011;62025;39.238;9.126;2023-09-30T08:06:23;11.63;;;5.03;;
63046;SDS011;62025;39.238;9.126;2023-09-30T08:08:49;6.60;;;4.10;;
63046;SDS011;62025;39.238;9.126;2023-09-30T08:11:17;5.93;;;3.70;;
63046;SDS011;62025;39.238;9.126;2023-09-30T08:13:46;5.50;;;3.40;;
63046;SDS011;62025;39.238;9.126;2023-09-30T08:16:12;3.88;;;2.97;;
63046;SDS011;62025;39.238;9.126;2023-09-30T08:18:38;9.98;;;4.13;;
63046;SDS011;62025;39.238;9.126;2023-09-30T08:21:08;7.18;;;3.83;;
63046;SDS011;62025;39.238;9.126;2023-09-30T08:23:36;8.50;;;3.63;;
63046;SDS011;62025;39.238;9.126;2023-09-30T08:26:04;7.32;;;3.95;;
63046;SDS011;62025;39.238;9.126;2023-09-30T08:28:33;11.05;;;3.50;;
63046;SDS011;62025;39.238;9.126;2023-09-30T08:31:03;5.35;;;3.20;;
63046;SDS011;62025;39.238;9.126;2023-09-30T08:33:34;7.50;;;3.42;;
63046;SDS011;62025;39.238;9.126;2023-09-30T08:36:05;5.22;;;3.15;;
63046;SDS011;62025;39.238;9.126;2023-09-30T08:38:39;6.45;;;3.20;;
63046;SDS011;62025;39.238;9.126;2023-09-30T08:41:07;4.63;;;3.08;;
63046;SDS011;62025;39.238;9.126;2023-09-30T08:43:42;3.67;;;3.10;;
63046;SDS011;62025;39.238;9.126;2023-09-30T08:46:09;4.20;;;2.50;;
63046;SDS011;62025;39.238;9.126;2023-09-30T08:48:35;4.40;;;2.72;;
63046;SDS011;62025;39.238;9.126;2023-09-30T08:51:02;3.55;;;2.28;;
63046;SDS011;62025;39.238;9.126;2023-09-30T08:53:28;4.13;;;2.40;;
63046;SDS011;62025;39.238;9.126;2023-09-30T08:55:56;4.95;;;3.17;;
63046;SDS011;62025;39.238;9.126;2023-09-30T08:58:28;4.18;;;2.70;;
63046;SDS011;62025;39.238;9.126;2023-09-30T09:00:54;3.13;;;2.38;;
63046;SDS011;62025;39.238;9.126;2023-09-30T09:03:21;2.55;;;2.35;;
63046;SDS011;62025;39.238;9.126;2023-09-30T09:05:57;2.97;;;2.33;;
63046;SDS011;62025;39.238;9.126;2023-09-30T09:08:25;3.78;;;2.58;;
63046;SDS011;62025;39.238;9.126;2023-09-30T09:10:59;3.63;;;2.60;;
63046;SDS011;62025;39.238;9.126;2023-09-30T09:13:28;4.07;;;2.38;;
63046;SDS011;62025;39.238;9.126;2023-09-30T09:16:10;5.57;;;2.42;;
63046;SDS011;62025;39.238;9.126;2023-09-30T09:18:36;4.28;;;2.22;;
63046;SDS011;62025;39.238;9.126;2023-09-30T09:21:12;3.90;;;1.90;;
63046;SDS011;62025;39.238;9.126;2023-09-30T09:23:43;3.30;;;2.07;;
63046;SDS011;62025;39.238;9.126;2023-09-30T09:26:12;2.30;;;1.90;;
63046;SDS011;62025;39.238;9.126;2023-09-30T09:29:02;2.85;;;1.83;;
63046;SDS011;62025;39.238;9.126;2023-09-30T09:31:32;2.67;;;1.85;;
63046;SDS011;62025;39.238;9.126;2023-09-30T09:34:01;2.58;;;2.05;;
63046;SDS011;62025;39.238;9.126;2023-09-30T09:39:09;4.30;;;1.92;;
63046;SDS011;62025;39.238;9.126;2023-09-30T09:41:48;2.05;;;1.85;;
63046;SDS011;62025;39.238;9.126;2023-09-30T09:44:20;2.45;;;1.60;;
63046;SDS011;62025;39.238;9.126;2023-09-30T09:46:50;3.58;;;2.08;;
63046;SDS011;62025;39.238;9.126;2023-09-30T09:49:17;5.30;;;2.00;;
63046;SDS011;62025;39.238;9.126;2023-09-30T09:51:47;3.33;;;1.90;;
63046;SDS011;62025;39.238;9.126;2023-09-30T09:54:14;2.50;;;1.90;;
63046;SDS011;62025;39.238;9.126;2023-09-30T09:56:42;3.27;;;2.10;;
63046;SDS011;62025;39.238;9.126;2023-09-30T09:59:11;2.85;;;1.85;;
63046;SDS011;62025;39.238;9.126;2023-09-30T10:04:06;5.40;;;1.98;;
63046;SDS011;62025;39.238;9.126;2023-09-30T10:06:33;5.70;;;1.92;;
63046;SDS011;62025;39.238;9.126;2023-09-30T10:09:09;3.75;;;1.70;;
63046;SDS011;62025;39.238;9.126;2023-09-30T10:11:37;3.45;;;2.13;;
63046;SDS011;62025;39.238;9.126;2023-09-30T10:14:05;3.22;;;2.05;;
63046;SDS011;62025;39.238;9.126;2023-09-30T10:19:13;5.15;;;2.47;;
63046;SDS011;62025;39.238;9.126;2023-09-30T10:24:47;4.45;;;2.40;;
63046;SDS011;62025;39.238;9.126;2023-09-30T10:29:47;5.22;;;2.50;;
63046;SDS011;62025;39.238;9.126;2023-09-30T10:32:15;3.58;;;2.40;;
63046;SDS011;62025;39.238;9.126;2023-09-30T10:34:47;3.20;;;2.40;;
63046;SDS011;62025;39.238;9.126;2023-09-30T10:37:21;2.83;;;2.38;;
63046;SDS011;62025;39.238;9.126;2023-09-30T10:50:52;4.25;;;2.60;;
63046;SDS011;62025;39.238;9.126;2023-09-30T10:53:21;4.88;;;2.45;;
63046;SDS011;62025;39.238;9.126;2023-09-30T10:55:54;5.40;;;2.30;;
63046;SDS011;62025;39.238;9.126;2023-09-30T10:58:44;4.72;;;2.45;;
63046;SDS011;62025;39.238;9.126;2023-09-30T11:01:15;5.45;;;2.60;;
63046;SDS011;62025;39.238;9.126;2023-09-30T11:03:45;3.97;;;2.35;;
63046;SDS011;62025;39.238;9.126;2023-09-30T11:06:15;5.97;;;2.85;;
63046;SDS011;62025;39.238;9.126;2023-09-30T11:08:54;5.22;;;2.75;;
63046;SDS011;62025;39.238;9.126;2023-09-30T11:11:40;8.93;;;3.17;;
63046;SDS011;62025;39.238;9.126;2023-09-30T11:14:29;4.78;;;2.83;;
63046;SDS011;62025;39.238;9.126;2023-09-30T11:16:57;6.95;;;2.90;;
63046;SDS011;62025;39.238;9.126;2023-09-30T11:19:26;9.82;;;5.10;;
63046;SDS011;62025;39.238;9.126;2023-09-30T11:21:59;3.97;;;3.00;;
63046;SDS011;62025;39.238;9.126;2023-09-30T11:24:25;11.80;;;8.07;;
63046;SDS011;62025;39.238;9.126;2023-09-30T11:26:54;12.32;;;7.10;;
63046;SDS011;62025;39.238;9.126;2023-09-30T11:29:23;8.23;;;6.50;;
63046;SDS011;62025;39.238;9.126;2023-09-30T11:31:52;7.53;;;5.95;;
63046;SDS011;62025;39.238;9.126;2023-09-30T11:34:18;4.60;;;3.10;;
63046;SDS011;62025;39.238;9.126;2023-09-30T11:36:51;5.05;;;3.22;;
63046;SDS011;62025;39.238;9.126;2023-09-30T11:39:25;4.97;;;2.83;;
63046;SDS011;62025;39.238;9.126;2023-09-30T11:41:53;11.88;;;6.07;;
63046;SDS011;62025;39.238;9.126;2023-09-30T11:44:22;6.57;;;3.67;;
63046;SDS011;62025;39.238;9.126;2023-09-30T11:52:04;5.32;;;3.40;;
63046;SDS011;62025;39.238;9.126;2023-09-30T11:57:14;4.47;;;3.42;;
63046;SDS011;62025;39.238;9.126;2023-09-30T11:59:42;5.43;;;3.38;;
63046;SDS011;62025;39.238;9.126;2023-09-30T12:02:10;7.03;;;3.63;;
63046;SDS011;62025;39.238;9.126;2023-09-30T12:04:42;4.15;;;3.30;;
63046;SDS011;62025;39.238;9.126;2023-09-30T12:07:10;4.38;;;3.35;;
63046;SDS011;62025;39.238;9.126;2023-09-30T12:09:37;5.28;;;3.30;;
63046;SDS011;62025;39.238;9.126;2023-09-30T12:12:04;6.50;;;3.15;;
63046;SDS011;62025;39.238;9.126;2023-09-30T12:14:34;6.95;;;3.35;;
63046;SDS011;62025;39.238;9.126;2023-09-30T12:17:00;6.22;;;3.30;;
63046;SDS011;62025;39.238;9.126;2023-09-30T12:19:26;4.00;;;3.40;;
63046;SDS011;62025;39.238;9.126;2023-09-30T12:21:52;5.32;;;3.35;;
63046;SDS011;62025;39.238;9.126;2023-09-30T12:24:19;10.35;;;3.45;;
63046;SDS011;62025;39.238;9.126;2023-09-30T12:26:47;5.82;;;2.97;;
63046;SDS011;62025;39.238;9.126;2023-09-30T12:29:15;7.27;;;3.40;;
63046;SDS011;62025;39.238;9.126;2023-09-30T12:31:46;5.13;;;3.53;;
63046;SDS011;62025;39.238;9.126;2023-09-30T12:34:13;4.75;;;3.10;;
63046;SDS011;62025;39.238;9.126;2023-09-30T12:36:39;5.18;;;3.40;;
63046;SDS011;62025;39.238;9.126;2023-09-30T12:39:07;6.10;;;3.10;;
63046;SDS011;62025;39.238;9.126;2023-09-30T12:41:37;5.45;;;3.17;;
63046;SDS011;62025;39.238;9.126;2023-09-30T12:44:05;5.68;;;3.10;;
63046;SDS011;62025;39.238;9.126;2023-09-30T12:46:32;4.27;;;3.00;;
63046;SDS011;62025;39.238;9.126;2023-09-30T12:49:03;4.80;;;2.70;;
63046;SDS011;62025;39.238;9.126;2023-09-30T12:51:31;3.22;;;2.92;;
63046;SDS011;62025;39.238;9.126;2023-09-30T12:53:58;3.80;;;3.17;;
63046;SDS011;62025;39.238;9.126;2023-09-30T12:56:25;6.95;;;3.00;;
63046;SDS011;62025;39.238;9.126;2023-09-30T12:58:51;3.75;;;2.55;;
63046;SDS011;62025;39.238;9.126;2023-09-30T13:01:17;5.45;;;3.25;;
63046;SDS011;62025;39.238;9.126;2023-09-30T13:03:44;7.05;;;3.50;;
63046;SDS011;62025;39.238;9.126;2023-09-30T13:06:11;3.40;;;2.60;;
63046;SDS011;62025;39.238;9.126;2023-09-30T13:08:38;3.28;;;2.60;;
63046;SDS011;62025;39.238;9.126;2023-09-30T13:11:05;3.45;;;2.60;;
63046;SDS011;62025;39.238;9.126;2023-09-30T13:13:31;6.55;;;3.00;;
63046;SDS011;62025;39.238;9.126;2023-09-30T13:16:01;4.70;;;2.40;;
63046;SDS011;62025;39.238;9.126;2023-09-30T13:18:32;6.10;;;2.83;;
63046;SDS011;62025;39.238;9.126;2023-09-30T13:20:59;3.35;;;2.47;;
63046;SDS011;62025;39.238;9.126;2023-09-30T13:23:25;5.25;;;2.60;;
63046;SDS011;62025;39.238;9.126;2023-09-30T13:25:53;3.70;;;2.40;;
63046;SDS011;62025;39.238;9.126;2023-09-30T13:28:19;6.90;;;2.60;;
63046;SDS011;62025;39.238;9.126;2023-09-30T13:30:45;5.07;;;2.83;;
63046;SDS011;62025;39.238;9.126;2023-09-30T13:33:13;4.60;;;2.50;;
63046;SDS011;62025;39.238;9.126;2023-09-30T13:35:39;5.95;;;2.90;;
63046;SDS011;62025;39.238;9.126;2023-09-30T13:38:05;5.07;;;2.45;;
63046;SDS011;62025;39.238;9.126;2023-09-30T13:40:31;5.22;;;2.80;;
63046;SDS011;62025;39.238;9.126;2023-09-30T13:42:57;3.67;;;2.70;;
63046;SDS011;62025;39.238;9.126;2023-09-30T13:45:25;5.87;;;2.50;;
63046;SDS011;62025;39.238;9.126;2023-09-30T13:47:53;5.30;;;2.65;;
63046;SDS011;62025;39.238;9.126;2023-09-30T13:50:19;3.28;;;2.55;;
63046;SDS011;62025;39.238;9.126;2023-09-30T13:52:45;4.15;;;2.70;;
63046;SDS011;62025;39.238;9.126;2023-09-30T13:55:11;5.38;;;2.70;;
63046;SDS011;62025;39.238;9.126;2023-09-30T13:57:46;5.10;;;3.53;;
63046;SDS011;62025;39.238;9.126;2023-09-30T14:00:14;4.47;;;2.60;;
63046;SDS011;62025;39.238;9.126;2023-09-30T14:02:41;6.57;;;2.80;;
63046;SDS011;62025;39.238;9.126;2023-09-30T14:05:08;5.00;;;2.72;;
63046;SDS011;62025;39.238;9.126;2023-09-30T14:07:36;3.75;;;2.70;;
63046;SDS011;62025;39.238;9.126;2023-09-30T14:10:03;3.75;;;2.70;;
63046;SDS011;62025;39.238;9.126;2023-09-30T14:12:30;4.95;;;2.70;;
63046;SDS011;62025;39.238;9.126;2023-09-30T14:14:57;3.47;;;2.60;;
63046;SDS011;62025;39.238;9.126;2023-09-30T14:17:23;6.75;;;2.53;;
63046;SDS011;62025;39.238;9.126;2023-09-30T14:19:50;3.42;;;2.90;;
63046;SDS011;62025;39.238;9.126;2023-09-30T14:22:17;6.07;;;2.72;;
63046;SDS011;62025;39.238;9.126;2023-09-30T14:24:44;3.80;;;2.55;;
63046;SDS011;62025;39.238;9.126;2023-09-30T14:27:10;5.05;;;2.95;;
63046;SDS011;62025;39.238;9.126;2023-09-30T14:29:39;4.93;;;2.95;;
63046;SDS011;62025;39.238;9.126;2023-09-30T14:32:05;3.88;;;2.70;;
63046;SDS011;62025;39.238;9.126;2023-09-30T14:34:32;4.55;;;2.60;;
63046;SDS011;62025;39.238;9.126;2023-09-30T14:36:58;3.33;;;2.90;;
63046;SDS011;62025;39.238;9.126;2023-09-30T14:39:24;3.47;;;2.70;;
63046;SDS011;62025;39.238;9.126;2023-09-30T14:41:50;4.32;;;3.00;;
63046;SDS011;62025;39.238;9.126;2023-09-30T14:44:16;5.07;;;2.58;;
63046;SDS011;62025;39.238;9.126;2023-09-30T14:46:43;6.28;;;3.13;;
63046;SDS011;62025;39.238;9.126;2023-09-30T14:49:09;5.07;;;3.28;;
63046;SDS011;62025;39.238;9.126;2023-09-30T14:51:35;5.45;;;3.22;;
63046;SDS011;62025;39.238;9.126;2023-09-30T14:54:03;5.90;;;3.00;;
63046;SDS011;62025;39.238;9.126;2023-09-30T14:56:30;5.17;;;2.97;;
63046;SDS011;62025;39.238;9.126;2023-09-30T14:58:56;4.63;;;2.90;;
63046;SDS011;62025;39.238;9.126;2023-09-30T15:01:22;3.50;;;3.20;;
63046;SDS011;62025;39.238;9.126;2023-09-30T15:03:49;3.60;;;2.85;;
63046;SDS011;62025;39.238;9.126;2023-09-30T15:06:14;4.68;;;2.95;;
63046;SDS011;62025;39.238;9.126;2023-09-30T15:08:40;4.82;;;2.70;;
63046;SDS011;62025;39.238;9.126;2023-09-30T15:11:11;4.32;;;2.88;;
63046;SDS011;62025;39.238;9.126;2023-09-30T15:13:42;7.32;;;3.00;;
63046;SDS011;62025;39.238;9.126;2023-09-30T15:16:17;5.70;;;2.95;;
63046;SDS011;62025;39.238;9.126;2023-09-30T15:18:44;5.88;;;2.83;;
63046;SDS011;62025;39.238;9.126;2023-09-30T15:21:12;3.63;;;2.85;;
63046;SDS011;62025;39.238;9.126;2023-09-30T15:23:39;3.22;;;2.70;;